Bartlesville, Oklahoma
Current Conditions -  °F | °C
As of 6:14 AM on Friday 24 Oct 2014 (Local Time) from KBVO Reporting Station
Haze Haze  
Wind Chill: 52°   Ceiling: Unl
Heat Index: 52°   Visibility: 1.7mi
Dew Point: 52°   Wind: 0mph
Humidity: 100%   Direction: NA
Pressure: 30.1"   Gusts: NA
Location:  36.75°N, 95.98°W
Report Text: KBVO 241114Z AUTO 00000KT 1 3/4SM BR CLR 11/11 A3010 RMK AO2 T01110111
Loading
Personal Weather Stations






























Interactive Weather Map
Tropical Storm Tracking
New forecast layout! Learn more

10-Day Weather Forecast

Advertisements
Track Severe Weather on mobile